Aérodrome :







RETROUVEZ-NOUS SUR...

 
LOGIN :

S'inscrire | Disclaimer

   EN    FR    IT 

 









Légende :    VFR   VFR Marginal   IFR   IFR Intensif   IFR Très Intensif
Visi : 
Plafond : 
>= 8 km
>= 3000ft
5 à 8 km
1000 à 3000 ft
1500m à 5 km
500 à 1000 ft
800 à 1500m
200 à 500 ft
< 800m
< 200 ft
Symboles :   Orages  Brouillard  Fortes neiges  Fortes précipitations  Vent > 20 kt






- Altitude de l'aérodrome : 1040 ft


KAFN - Jaffrey Silver Ranch

DERNIER METAR :
  • 172352Z AUTO 00000KT 10SM CLR M13/M23 A3056 RMK AO2 SLP378 T11281228 11089 21128 51016

METARs EXPIRÉS :
  • 172252Z AUTO VRB05KT 10SM CLR M12/M23 A3055 RMK AO2 SLP373 T11171233
  • 172152Z AUTO VRB05KT 10SM CLR M11/M24 A3055 RMK AO2 SLP373 T11111239

TAF N/A



MET'MAP, la Météo Aéronautique d'un coup d'oeil ! - Copyright ORBIFLY Décembre 2007 - Disclaimer

ORBIFLY MET'MAP TEAM :

Programmation & Développement : Alexandra Zaïnal
Sur une idée originale de : Baudouin d'Aumeries
Assistance à la programmation : Marc-Olivier Méhu
Soutien technique & logistique : Manuel Goepfert

Contact : metmap@orbifly.com




SOURCES & CREDITS :

   NOAA